Time;durP1;ratioP1;P1;durP2;ratioP2;P2;SDS_P1;SDS_P2;PMS_P1;PMS_P2;Temp;Humidity;BMP_temperature;BMP_pressure;BME280_temperature;BME280_humidity;BME280_pressure;Samples;Min_cycle;Max_cycle;Signal;HPM_P1;HPM_P2
2022/06/01 00:00:26;;;;;;;3.47;1.92;;;;;;;20.24;46.64;101280.25;5071761;28;20025;-54
2022/06/01 00:02:52;;;;;;;3.55;1.73;;;;;;;20.23;46.45;101286.50;5072272;28;20016;-52
2022/06/01 00:05:19;;;;;;;3.83;2.20;;;;;;;20.23;46.47;101290.97;5072323;28;20069;-53
2022/06/01 00:07:45;;;;;;;3.25;1.63;;;;;;;20.21;46.35;101275.22;5071765;28;20029;-54
2022/06/01 00:10:11;;;;;;;4.32;2.10;;;;;;;20.21;46.29;101285.78;5072078;28;20059;-55
2022/06/01 00:12:37;;;;;;;4.30;2.13;;;;;;;20.19;46.68;101285.09;5072618;28;20033;-53
2022/06/01 00:15:03;;;;;;;5.35;2.40;;;;;;;20.18;46.43;101286.03;5071448;28;20024;-54
2022/06/01 00:17:29;;;;;;;3.40;1.92;;;;;;;20.16;46.37;101282.69;5072529;28;20021;-55
2022/06/01 00:19:54;;;;;;;3.55;2.20;;;;;;;20.16;46.34;101293.28;5072148;28;20372;-54
2022/06/01 00:22:21;;;;;;;4.07;2.00;;;;;;;20.16;46.55;101293.28;5071645;28;20149;-55
2022/06/01 00:24:53;;;;;;;3.58;2.08;;;;;;;20.13;46.19;101288.25;5072271;28;20032;-55
2022/06/01 00:27:18;;;;;;;4.35;2.35;;;;;;;20.14;46.44;101289.06;5072483;28;20020;-55
2022/06/01 00:29:44;;;;;;;3.88;2.00;;;;;;;20.13;46.44;101296.19;5071524;28;20487;-53
2022/06/01 00:32:13;;;;;;;3.35;2.10;;;;;;;20.11;46.34;101288.38;5072058;28;20498;-54
2022/06/01 00:34:42;;;;;;;4.18;2.03;;;;;;;20.12;46.26;101294.50;5072249;28;20029;-54
2022/06/01 00:37:08;;;;;;;3.97;2.15;;;;;;;20.09;46.26;101295.59;5071140;28;20074;-54
2022/06/01 00:39:35;;;;;;;3.70;2.30;;;;;;;20.09;46.21;101300.91;5072308;28;20054;-54
2022/06/01 00:42:18;;;;;;;4.40;2.00;;;;;;;20.08;46.29;101291.25;5071673;28;20417;-54
2022/06/01 00:44:45;;;;;;;3.22;2.10;;;;;;;20.06;46.17;101287.91;5071402;28;20039;-54
2022/06/01 00:47:11;;;;;;;4.07;2.13;;;;;;;20.07;46.21;101291.38;5071782;28;20027;-55
2022/06/01 00:49:40;;;;;;;3.35;2.00;;;;;;;20.05;46.34;101280.94;5071412;28;20082;-54
2022/06/01 00:52:06;;;;;;;4.20;2.58;;;;;;;20.05;46.41;101286.22;5071928;28;20021;-55
2022/06/01 00:54:32;;;;;;;3.35;1.85;;;;;;;20.05;46.23;101290.69;5071985;28;20468;-53
2022/06/01 00:57:03;;;;;;;3.50;2.13;;;;;;;20.03;46.18;101284.69;5070985;28;20035;-53
2022/06/01 00:59:33;;;;;;;3.58;2.15;;;;;;;20.02;46.23;101286.47;5071964;28;20103;-54
2022/06/01 01:01:59;;;;;;;3.60;2.10;;;;;;;20.01;46.39;101283.94;5071575;28;20023;-54
2022/06/01 01:04:26;;;;;;;3.58;2.20;;;;;;;20.00;46.36;101280.47;5071278;28;20048;-54
2022/06/01 01:06:51;;;;;;;4.25;2.13;;;;;;;20.00;46.33;101291.06;5071631;28;20488;-54
2022/06/01 01:09:18;;;;;;;3.95;2.33;;;;;;;19.99;46.28;101283.25;5072054;28;20112;-53
2022/06/01 01:11:49;;;;;;;3.22;1.90;;;;;;;19.99;46.17;101292.00;5071791;28;20029;-53
2022/06/01 01:14:20;;;;;;;3.40;2.10;;;;;;;19.98;46.32;101286.84;5075434;28;20039;-53
2022/06/01 01:16:47;;;;;;;3.50;2.00;;;;;;;19.96;46.21;101284.34;5075199;28;20025;-52
2022/06/01 01:19:34;;;;;;;3.58;2.25;;;;;;;19.94;46.28;101284.47;5074582;28;20029;-54
2022/06/01 01:22:10;;;;;;;3.75;2.17;;;;;;;19.94;45.92;101284.47;5075169;28;20035;-54
2022/06/01 01:24:39;;;;;;;3.78;2.15;;;;;;;19.93;46.17;101277.50;5075558;28;20025;-56
2022/06/01 01:27:04;;;;;;;3.25;2.10;;;;;;;19.91;46.36;101274.13;5074538;28;20119;-55
2022/06/01 01:29:39;;;;;;;4.43;2.38;;;;;;;19.90;46.29;101277.75;5075884;28;20064;-54
2022/06/01 01:32:07;;;;;;;3.42;2.10;;;;;;;19.90;46.18;101279.53;5074239;28;20024;-52
2022/06/01 01:34:36;;;;;;;3.60;2.00;;;;;;;19.90;46.31;101276.91;5075372;28;20103;-54
2022/06/01 01:37:05;;;;;;;3.55;2.05;;;;;;;19.88;46.24;101274.38;5074676;28;20057;-54
2022/06/01 01:39:34;;;;;;;4.60;2.28;;;;;;;19.87;46.26;101267.44;5074328;28;20468;-53
2022/06/01 01:41:59;;;;;;;3.80;2.47;;;;;;;19.87;46.19;101275.38;5074830;28;20177;-53
2022/06/01 01:44:50;;;;;;;3.28;2.25;;;;;;;19.87;46.17;101279.81;5075066;28;20024;-54
2022/06/01 01:47:15;;;;;;;4.05;2.45;;;;;;;19.85;46.25;101272.00;5074391;28;20029;-55
2022/06/01 01:49:43;;;;;;;3.85;2.17;;;;;;;19.85;46.18;101279.94;5075074;28;20073;-55
2022/06/01 01:52:14;;;;;;;4.18;2.30;;;;;;;19.84;46.17;101282.72;5074497;28;20032;-51
2022/06/01 01:54:45;;;;;;;4.43;2.38;;;;;;;19.84;46.33;101282.72;5073790;28;20364;-54
2022/06/01 01:57:30;;;;;;;5.15;2.33;;;;;;;19.83;46.24;101281.03;5074679;28;20040;-53
2022/06/01 02:00:22;;;;;;;4.07;2.30;;;;;;;19.83;46.28;101283.66;5074075;28;20104;-53
2022/06/01 02:03:14;;;;;;;4.50;2.50;;;;;;;19.83;46.28;101286.31;5074936;28;20093;-54
2022/06/01 02:06:09;;;;;;;3.45;2.15;;;;;;;19.80;46.42;101287.41;5050836;28;20098;-54
2022/06/01 02:08:50;;;;;;;3.97;2.33;;;;;;;19.81;46.21;101285.59;5073793;28;20468;-54
2022/06/01 02:14:05;;;;;;;4.30;2.27;;;;;;;19.79;46.09;101279.59;5074121;28;20089;-54
2022/06/01 02:16:36;;;;;;;3.97;2.50;;;;;;;19.78;46.21;101280.56;5074518;28;20024;-54
2022/06/01 02:19:06;;;;;;;3.92;2.30;;;;;;;19.76;46.11;101275.41;5074127;28;20048;-54
2022/06/01 02:21:32;;;;;;;4.38;2.50;;;;;;;19.76;46.27;101283.34;5073499;28;20028;-54
2022/06/01 02:24:00;;;;;;;4.18;2.60;;;;;;;19.75;46.26;101279.78;5073775;28;20029;-53
2022/06/01 02:26:26;;;;;;;3.92;2.40;;;;;;;19.75;46.05;101278.97;5074174;28;20512;-53
2022/06/01 02:28:56;;;;;;;4.40;2.30;;;;;;;19.73;46.12;101287.03;5073069;28;20024;-54
2022/06/01 02:31:23;;;;;;;4.55;2.40;;;;;;;19.73;46.16;101281.75;5074107;28;20029;-55
2022/06/01 02:33:49;;;;;;;3.85;2.55;;;;;;;19.72;46.12;101287.16;5073836;28;20052;-54
2022/06/01 02:36:18;;;;;;;4.15;2.38;;;;;;;19.72;46.13;101287.16;5073278;28;20036;-54
2022/06/01 02:38:47;;;;;;;3.90;2.53;;;;;;;19.72;46.13;101287.16;5074158;28;20020;-54
2022/06/01 02:43:57;;;;;;;4.03;2.55;;;;;;;19.69;45.97;101280.31;5073134;28;20034;-53
2022/06/01 02:46:23;;;;;;;3.92;2.10;;;;;;;19.69;46.15;101282.09;5073696;28;20032;-54
2022/06/01 02:48:50;;;;;;;4.55;2.30;;;;;;;19.68;45.64;101283.91;5073532;28;20396;-53
2022/06/01 02:51:18;;;;;;;4.53;2.50;;;;;;;19.68;45.98;101283.09;5072954;28;20025;-51
2022/06/01 02:53:43;;;;;;;3.85;2.70;;;;;;;19.67;45.96;101284.88;5073650;28;20028;-53
2022/06/01 02:56:09;;;;;;;4.38;2.50;;;;;;;19.66;46.03;101282.34;5073254;28;20035;-54
2022/06/01 02:58:34;;;;;;;3.70;2.45;;;;;;;19.64;46.15;101277.19;5072847;28;20021;-54
2022/06/01 03:01:01;;;;;;;4.53;2.50;;;;;;;19.64;46.07;101281.66;5073069;28;20529;-54
2022/06/01 03:03:26;;;;;;;4.03;2.72;;;;;;;19.63;46.26;101280.81;5072666;28;20510;-54
2022/06/01 03:05:52;;;;;;;4.10;2.47;;;;;;;19.62;45.88;101279.13;5073065;28;20044;-55
2022/06/01 03:08:20;;;;;;;3.50;2.28;;;;;;;19.62;45.99;101279.13;5073295;28;20090;-54
2022/06/01 03:10:48;;;;;;;3.92;2.50;;;;;;;19.62;45.83;101278.28;5072750;28;20380;-55
2022/06/01 03:13:15;;;;;;;4.03;2.55;;;;;;;19.60;46.06;101283.72;5073398;28;20107;-53
2022/06/01 03:15:40;;;;;;;4.00;2.42;;;;;;;19.61;45.86;101284.53;5072931;28;20056;-54
2022/06/01 03:18:06;;;;;;;4.20;2.60;;;;;;;19.59;45.91;101279.38;5072286;28;20075;-55
2022/06/01 03:20:33;;;;;;;4.68;2.60;;;;;;;19.58;45.82;101289.13;5073210;28;20444;-52
2022/06/01 03:23:00;;;;;;;4.70;2.58;;;;;;;19.58;45.53;101282.97;5072716;28;20122;-54
2022/06/01 03:25:26;;;;;;;3.90;2.35;;;;;;;19.57;45.87;101287.44;5072371;28;20171;-54
2022/06/01 03:27:53;;;;;;;4.25;2.40;;;;;;;19.57;45.87;101287.44;5072595;28;20066;-53
2022/06/01 03:30:20;;;;;;;3.83;2.40;;;;;;;19.56;45.84;101282.25;5073153;28;20031;-53
2022/06/01 03:32:46;;;;;;;4.57;2.65;;;;;;;19.55;45.82;101283.22;5072218;28;20024;-54
2022/06/01 03:35:15;;;;;;;4.25;2.60;;;;;;;19.55;45.80;101285.84;5072195;28;20024;-53
2022/06/01 03:37:41;;;;;;;3.78;2.47;;;;;;;19.54;46.05;101285.03;5073024;28;20024;-53
2022/06/01 03:40:07;;;;;;;4.00;2.35;;;;;;;19.54;45.90;101279.75;5071854;28;20080;-52
2022/06/01 03:42:33;;;;;;;4.00;2.72;;;;;;;19.52;45.80;101279.03;5072645;28;20548;-54
2022/06/01 03:47:42;;;;;;;3.85;2.40;;;;;;;19.51;45.87;101282.63;5071995;28;20031;-53
2022/06/01 03:50:08;;;;;;;3.60;2.40;;;;;;;19.50;45.87;101280.97;5072460;28;20036;-54
2022/06/01 03:52:34;;;;;;;3.90;2.38;;;;;;;19.50;45.65;101283.59;5071972;28;20273;-53
2022/06/01 03:54:59;;;;;;;3.30;2.17;;;;;;;19.49;45.88;101283.72;5072130;28;20028;-54
2022/06/01 03:57:28;;;;;;;4.55;2.72;;;;;;;19.48;46.01;101290.81;5072957;28;20020;-54
2022/06/01 03:59:53;;;;;;;4.30;2.55;;;;;;;19.48;45.76;101285.50;5070387;28;20035;-53
2022/06/01 04:02:18;;;;;;;3.85;2.47;;;;;;;19.48;45.80;101298.72;5072687;28;20024;-53
2022/06/01 04:04:44;;;;;;;3.60;2.10;;;;;;;19.46;45.88;101294.53;5072433;28;20472;-54
2022/06/01 04:07:09;;;;;;;4.28;2.20;;;;;;;19.46;45.80;101292.72;5071470;28;20047;-55
2022/06/01 04:09:34;;;;;;;3.92;2.30;;;;;;;19.46;45.96;101292.72;5072338;28;20024;-55
2022/06/01 04:12:00;;;;;;;4.05;2.33;;;;;;;19.46;45.75;101294.53;5072457;28;20089;-54
2022/06/01 04:14:26;;;;;;;5.45;2.45;;;;;;;19.45;45.75;101292.84;5071944;28;20025;-54
2022/06/01 04:16:52;;;;;;;3.97;2.40;;;;;;;19.44;45.70;101297.31;5072346;28;20024;-54
2022/06/01 04:19:20;;;;;;;3.55;2.03;;;;;;;19.43;45.79;101297.44;5072858;28;20024;-55
2022/06/01 04:21:49;;;;;;;4.32;2.50;;;;;;;19.42;45.65;101299.22;5071807;28;20381;-55
2022/06/01 04:24:19;;;;;;;3.90;2.30;;;;;;;19.43;45.71;101305.38;5072579;28;20392;-53
2022/06/01 04:26:45;;;;;;;4.80;2.42;;;;;;;19.40;45.77;101293.22;5073051;28;20028;-54
2022/06/01 04:29:11;;;;;;;3.80;2.20;;;;;;;19.40;45.74;101296.69;5071912;28;20036;-54
2022/06/01 04:31:40;;;;;;;3.80;2.20;;;;;;;19.39;45.75;101300.31;5072465;28;20028;-54
2022/06/01 04:34:05;;;;;;;3.63;2.17;;;;;;;19.39;45.61;101296.81;5072214;28;20075;-56
2022/06/01 04:36:33;;;;;;;4.43;2.40;;;;;;;19.38;45.75;101301.28;5071427;28;20024;-52
2022/06/01 04:38:58;;;;;;;4.53;2.25;;;;;;;19.37;45.65;101304.88;5071921;28;20060;-54
2022/06/01 04:41:24;;;;;;;3.45;2.15;;;;;;;19.37;45.58;101298.75;5072310;28;20042;-54
2022/06/01 04:43:52;;;;;;;3.63;2.13;;;;;;;19.36;45.57;101299.72;5071334;28;20548;-54
2022/06/01 04:46:17;;;;;;;4.22;2.05;;;;;;;19.37;45.62;101304.03;5072537;28;20482;-53
2022/06/01 04:48:43;;;;;;;3.57;2.03;;;;;;;19.36;45.40;101307.66;5075749;28;20033;-53
2022/06/01 04:51:08;;;;;;;4.20;2.00;;;;;;;19.35;45.59;101312.09;5075043;28;20270;-53
2022/06/01 04:53:33;;;;;;;3.53;2.17;;;;;;;19.34;45.83;101305.13;5075833;28;20507;-53
2022/06/01 04:55:59;;;;;;;3.78;2.05;;;;;;;19.35;45.33;101311.25;5074862;28;20116;-54
2022/06/01 04:58:24;;;;;;;3.43;2.00;;;;;;;19.34;45.10;101313.06;5076001;28;20063;-54
2022/06/01 05:00:49;;;;;;;3.65;2.13;;;;;;;19.34;45.44;101313.06;5075534;28;20262;-55
2022/06/01 05:03:18;;;;;;;3.53;2.20;;;;;;;19.34;45.35;101318.34;5074950;28;20460;-53
2022/06/01 05:05:43;;;;;;;4.05;2.40;;;;;;;19.34;45.17;101317.50;5075287;28;20076;-54
2022/06/01 05:08:11;;;;;;;4.20;2.00;;;;;;;19.35;45.30;101317.38;5075510;28;20025;-54
2022/06/01 05:10:36;;;;;;;3.88;2.00;;;;;;;19.36;45.54;101312.94;5075041;28;20024;-54
2022/06/01 05:13:02;;;;;;;3.85;2.13;;;;;;;19.37;45.33;101309.31;5075405;28;20032;-54
2022/06/01 05:15:27;;;;;;;3.95;2.08;;;;;;;19.37;45.22;101310.16;5075393;28;20506;-54
2022/06/01 05:17:53;;;;;;;4.38;2.20;;;;;;;19.39;45.34;101310.03;5074498;28;20157;-54
2022/06/01 05:20:18;;;;;;;3.95;2.20;;;;;;;19.39;45.24;101310.88;5075369;28;20052;-55
2022/06/01 05:22:44;;;;;;;3.97;2.10;;;;;;;19.42;45.63;101308.97;5075587;28;20036;-49
2022/06/01 05:25:10;;;;;;;3.13;2.03;;;;;;;19.44;45.88;101313.19;5074236;28;20117;-49
2022/06/01 05:27:36;;;;;;;4.63;2.30;;;;;;;19.48;46.32;101309.31;5075287;28;20024;-48
2022/06/01 05:30:03;;;;;;;10.35;2.42;;;;;;;19.60;45.89;101311.94;5074914;28;20027;-52
2022/06/01 05:32:28;;;;;;;4.95;2.40;;;;;;;19.71;45.84;101306.59;5074356;28;20099;-51
2022/06/01 05:34:53;;;;;;;3.90;2.40;;;;;;;19.79;45.83;101309.53;5074787;28;20024;-50
2022/06/01 05:37:19;;;;;;;5.93;2.00;;;;;;;19.87;45.63;101312.38;5075003;28;20024;-52
2022/06/01 05:39:45;;;;;;;3.65;1.80;;;;;;;19.94;45.18;101308.25;5074190;28;20029;-52
2022/06/01 05:42:11;;;;;;;3.60;2.08;;;;;;;20.02;45.09;101309.47;5074765;28;20060;-54
2022/06/01 05:44:36;;;;;;;3.22;1.85;;;;;;;20.08;44.94;101309.78;5075032;28;20040;-50
2022/06/01 05:47:06;;;;;;;3.30;2.05;;;;;;;20.14;45.12;101308.44;5074026;28;20025;-51
2022/06/01 05:49:31;;;;;;;3.72;2.00;;;;;;;20.22;45.04;101313.09;5074621;28;20020;-53
2022/06/01 05:51:57;;;;;;;4.70;2.28;;;;;;;20.29;45.47;101317.75;5074398;28;20024;-52
2022/06/01 05:54:23;;;;;;;3.70;1.90;;;;;;;20.35;44.98;101318.22;5074159;28;20021;-55
2022/06/01 05:56:48;;;;;;;4.03;2.17;;;;;;;20.41;44.88;101317.69;5075251;28;20383;-50
2022/06/01 05:59:14;;;;;;;4.70;2.15;;;;;;;20.47;44.69;101319.81;5075015;28;20085;-53
2022/06/01 06:01:46;;;;;;;3.70;1.80;;;;;;;20.52;44.58;101322.94;5077004;28;20421;-55
2022/06/01 06:04:11;;;;;;;4.03;1.83;;;;;;;20.56;44.64;101327.00;5074967;28;20044;-55
2022/06/01 06:06:37;;;;;;;3.45;1.70;;;;;;;20.60;44.61;101330.22;5074308;28;20023;-59
2022/06/01 06:09:08;;;;;;;3.28;1.83;;;;;;;20.64;45.04;101323.75;5074650;28;20024;-54
2022/06/01 06:11:37;;;;;;;3.33;1.58;;;;;;;20.68;44.48;101329.63;5075354;28;20072;-53
2022/06/01 06:14:03;;;;;;;6.05;2.78;;;;;;;20.71;44.64;101324.06;5073909;28;20044;-55
2022/06/01 06:16:34;;;;;;;3.88;1.70;;;;;;;20.74;44.96;101326.44;5074209;28;20028;-51
2022/06/01 06:19:00;;;;;;;3.10;1.55;;;;;;;20.75;44.80;101328.13;5073783;28;20044;-54
2022/06/01 06:21:28;;;;;;;3.92;1.80;;;;;;;20.77;44.88;101334.13;5073576;28;20109;-51
2022/06/01 06:23:59;;;;;;;3.97;1.75;;;;;;;20.79;44.78;101334.84;5073903;28;20107;-54
2022/06/01 06:26:25;;;;;;;5.93;1.63;;;;;;;20.82;44.83;101334.56;5074134;28;20030;-51
2022/06/01 06:28:53;;;;;;;6.25;1.60;;;;;;;20.83;44.67;101338.91;5072744;28;20024;-51
2022/06/01 06:31:23;;;;;;;4.18;1.73;;;;;;;20.86;44.73;101348.44;5073917;28;20090;-52
2022/06/01 06:33:49;;;;;;;2.83;1.60;;;;;;;20.86;44.87;101351.91;5073932;28;20147;-54
2022/06/01 06:36:14;;;;;;;3.50;1.48;;;;;;;20.88;44.84;101355.25;5073298;28;20029;-52
2022/06/01 06:38:40;;;;;;;4.05;1.80;;;;;;;20.90;44.85;101368.38;5073737;28;20024;-53
2022/06/01 06:41:07;;;;;;;5.15;1.80;;;;;;;20.92;44.63;101369.94;5073610;28;20034;-51
2022/06/01 06:43:34;;;;;;;3.88;1.60;;;;;;;20.93;44.70;101368.94;5073037;28;20043;-54
2022/06/01 06:46:03;;;;;;;5.15;1.77;;;;;;;20.94;44.62;101373.28;5073431;28;20025;-53
2022/06/01 06:48:29;;;;;;;3.20;1.60;;;;;;;20.96;44.61;101373.97;5073021;28;20024;-52
2022/06/01 06:50:55;;;;;;;4.47;1.80;;;;;;;20.96;44.38;101376.63;5073206;28;20012;-53
2022/06/01 06:53:21;;;;;;;5.40;2.20;;;;;;;20.98;44.51;101382.66;5073803;28;20050;-54
2022/06/01 06:55:46;;;;;;;4.00;1.77;;;;;;;20.99;44.24;101384.31;5073080;28;20033;-53
2022/06/01 06:58:12;;;;;;;6.77;1.93;;;;;;;20.99;44.20;101373.72;5073326;28;20024;-54
2022/06/01 07:00:37;;;;;;;3.55;1.60;;;;;;;21.01;44.29;101382.41;5073582;28;20281;-54
2022/06/01 07:03:03;;;;;;;3.22;1.55;;;;;;;21.01;44.47;101385.06;5072637;28;20504;-54
2022/06/01 07:08:13;;;;;;;4.07;1.77;;;;;;;20.99;44.55;101386.97;5073217;28;20078;-50
2022/06/01 07:10:38;;;;;;;3.60;1.45;;;;;;;20.98;44.35;101385.31;5071719;28;20032;-52
2022/06/01 07:13:10;;;;;;;4.28;1.60;;;;;;;20.98;44.51;101390.63;5072800;28;20035;-52
2022/06/01 07:15:36;;;;;;;3.60;1.70;;;;;;;20.99;44.48;101386.97;5073075;28;20493;-51
2022/06/01 07:18:03;;;;;;;3.65;1.70;;;;;;;21.01;44.12;101390.34;5072227;28;20025;-54
2022/06/01 07:20:28;;;;;;;5.70;1.63;;;;;;;21.03;43.68;101390.22;5073106;28;20099;-53
2022/06/01 07:22:57;;;;;;;5.70;1.60;;;;;;;21.02;43.92;101389.38;5072851;28;20059;-52
2022/06/01 07:25:23;;;;;;;5.78;1.60;;;;;;;21.02;44.14;101391.19;5072299;28;20020;-52
2022/06/01 07:27:49;;;;;;;3.28;1.63;;;;;;;21.01;44.02;101389.50;5072913;28;20059;-54
2022/06/01 07:30:15;;;;;;;3.75;1.60;;;;;;;20.99;43.91;101392.28;5072835;28;20052;-52
2022/06/01 07:32:44;;;;;;;4.43;1.60;;;;;;;20.99;43.91;101386.97;5072348;28;20145;-53
2022/06/01 07:35:10;;;;;;;5.47;2.00;;;;;;;21.00;43.92;101390.47;5072534;28;20111;-51
2022/06/01 07:43:06;;;;;;;3.85;1.60;;;;;;;21.05;43.96;101387.44;5072605;28;20083;-52
2022/06/01 07:45:36;;;;;;;3.92;1.42;;;;;;;21.08;43.89;101382.72;5072071;28;20437;-53
2022/06/01 07:48:06;;;;;;;3.42;1.50;;;;;;;21.11;43.64;101382.44;5072515;28;20029;-53
2022/06/01 07:50:32;;;;;;;3.40;1.40;;;;;;;21.10;43.54;101387.88;5072596;28;20039;-53
2022/06/01 07:52:58;;;;;;;4.95;1.65;;;;;;;21.14;43.12;101390.13;5071583;28;20020;-52
2022/06/01 07:55:26;;;;;;;4.13;1.67;;;;;;;21.14;43.36;101386.63;5072655;28;20029;-53
2022/06/01 07:57:51;;;;;;;3.03;1.35;;;;;;;21.15;43.28;101389.16;5072322;28;20020;-55
2022/06/01 08:00:18;;;;;;;3.37;1.60;;;;;;;21.16;43.12;101398.78;5071109;28;20037;-54
2022/06/01 08:02:44;;;;;;;5.38;1.40;;;;;;;21.17;43.30;101389.03;5071547;28;20282;-53
2022/06/01 08:05:13;;;;;;;3.40;1.60;;;;;;;21.16;43.42;101388.19;5071969;28;20040;-52
2022/06/01 08:07:38;;;;;;;3.22;1.33;;;;;;;21.14;43.44;101387.50;5071737;28;20461;-51
2022/06/01 08:10:04;;;;;;;3.17;1.50;;;;;;;21.11;43.25;101394.84;5072266;28;20029;-52
2022/06/01 08:15:13;;;;;;;2.45;1.30;;;;;;;21.08;43.56;101392.44;5072403;28;20044;-50
2022/06/01 08:17:41;;;;;;;2.05;1.10;;;;;;;21.06;44.00;101394.41;5072223;28;20025;-56
2022/06/01 08:20:08;;;;;;;3.92;1.50;;;;;;;21.07;44.15;101401.38;5071347;28;20488;-56
2022/06/01 08:22:33;;;;;;;4.20;1.42;;;;;;;21.07;43.97;101398.75;5075967;28;20059;-55
2022/06/01 08:24:58;;;;;;;2.70;1.10;;;;;;;21.07;43.90;101398.75;5076090;28;20068;-52
2022/06/01 08:27:23;;;;;;;4.15;1.40;;;;;;;21.05;43.85;101393.56;5075818;28;20059;-56
2022/06/01 08:29:49;;;;;;;3.25;1.52;;;;;;;21.03;44.10;101387.56;5075972;28;20016;-57
2022/06/01 08:32:14;;;;;;;3.45;1.38;;;;;;;21.05;44.10;101390.09;5076018;28;20380;-54
2022/06/01 08:34:42;;;;;;;6.72;1.45;;;;;;;21.05;44.14;101384.78;5075130;28;20079;-55
2022/06/01 08:37:07;;;;;;;3.90;1.30;;;;;;;21.05;44.00;101387.44;5075570;28;20081;-56
2022/06/01 08:39:33;;;;;;;3.95;1.30;;;;;;;21.06;44.15;101384.66;5076216;28;20103;-55
2022/06/01 08:42:01;;;;;;;3.42;1.20;;;;;;;21.04;44.36;101383.94;5008030;28;20121;-57
2022/06/01 08:44:37;;;;;;;4.70;1.65;;;;;;;21.05;44.43;101377.66;5064159;28;20146;-56
2022/06/01 08:47:23;;;;;;;5.03;1.30;;;;;;;21.02;44.20;101367.34;5055865;28;20374;-56
2022/06/01 08:49:48;;;;;;;3.38;1.30;;;;;;;21.02;43.79;101376.09;5055136;28;20167;-57
2022/06/01 08:52:13;;;;;;;4.35;1.40;;;;;;;20.99;43.90;101379.03;5056007;28;20116;-57
2022/06/01 08:54:39;;;;;;;2.95;1.20;;;;;;;20.97;43.89;101380.13;5055925;28;20182;-56
2022/06/01 08:57:14;;;;;;;3.70;1.30;;;;;;;20.95;44.07;101377.63;5054723;28;20121;-56
2022/06/01 08:59:49;;;;;;;2.72;1.30;;;;;;;20.92;43.85;101377.88;5055903;28;20033;-55
2022/06/01 09:02:39;;;;;;;5.00;1.50;;;;;;;20.93;44.11;101384.00;5055184;28;20028;-56
2022/06/01 09:05:14;;;;;;;3.72;1.35;;;;;;;20.91;44.23;101386.78;5055482;28;20079;-56
2022/06/01 09:07:54;;;;;;;2.60;1.25;;;;;;;20.88;44.15;101388.88;5055517;28;20061;-56
2022/06/01 09:10:56;;;;;;;2.45;1.10;;;;;;;20.86;43.98;101393.47;5054794;28;20100;-56
2022/06/01 09:13:24;;;;;;;2.85;1.30;;;;;;;20.83;44.01;101390.06;5055768;28;20037;-54
2022/06/01 09:16:12;;;;;;;3.83;1.40;;;;;;;20.84;44.55;101391.78;5055034;28;20075;-54
2022/06/01 09:18:48;;;;;;;2.15;1.20;;;;;;;20.87;44.29;101381.88;5055604;28;20029;-59
2022/06/01 09:24:12;;;;;;;4.45;1.35;;;;;;;20.86;44.07;101386.34;5054281;28;20052;-57
2022/06/01 09:26:53;;;;;;;8.60;2.10;;;;;;;20.84;44.34;101393.59;5055347;28;20059;-54
2022/06/01 09:29:27;;;;;;;3.47;1.20;;;;;;;20.83;44.06;101387.44;5055112;28;20100;-54
2022/06/01 09:32:00;;;;;;;4.70;1.38;;;;;;;20.82;44.13;101388.41;5053945;28;20503;-53
2022/06/01 09:34:38;;;;;;;4.28;1.35;;;;;;;20.81;44.29;101392.03;5054269;28;20535;-54
2022/06/01 09:37:11;;;;;;;3.13;1.27;;;;;;;20.78;44.00;101386.97;5054998;28;20036;-55
2022/06/01 09:39:47;;;;;;;2.85;1.30;;;;;;;20.78;44.25;101397.56;5054929;28;20021;-55
2022/06/01 09:42:34;;;;;;;3.15;1.20;;;;;;;20.76;44.24;101388.94;5054924;28;20025;-54
2022/06/01 09:45:02;;;;;;;3.08;1.20;;;;;;;20.75;44.37;101397.00;5053748;28;20028;-56
2022/06/01 09:47:40;;;;;;;4.30;1.40;;;;;;;20.71;44.29;101390.28;5054930;28;20465;-56
2022/06/01 09:50:21;;;;;;;2.45;1.30;;;;;;;20.70;44.56;101393.91;5054483;28;20051;-57
2022/06/01 09:52:47;;;;;;;3.60;1.45;;;;;;;20.69;44.76;101384.28;5054106;28;20037;-55
2022/06/01 09:55:17;;;;;;;2.75;1.35;;;;;;;20.68;44.78;101387.88;5054291;28;20033;-57
2022/06/01 09:57:43;;;;;;;3.60;1.42;;;;;;;20.69;44.71;101394.88;5054876;28;20025;-58
2022/06/01 10:06:25;;;;;;;3.72;1.45;;;;;;;20.68;44.49;101423.16;5052573;28;20049;-58
2022/06/01 10:09:12;;;;;;;2.55;1.27;;;;;;;20.66;44.50;101433.03;5054268;28;20017;-57
2022/06/01 10:11:42;;;;;;;3.28;1.30;;;;;;;20.67;44.66;101439.19;5054891;28;20032;-59
2022/06/01 10:14:08;;;;;;;4.65;1.25;;;;;;;20.64;44.52;101438.44;5053723;28;20126;-57
2022/06/01 10:16:50;;;;;;;2.47;1.40;;;;;;;20.62;44.75;101455.41;5054484;28;20037;-57
2022/06/01 10:19:20;;;;;;;3.38;1.33;;;;;;;20.62;44.73;101452.78;5054464;28;20032;-57
2022/06/01 10:21:58;;;;;;;3.38;1.40;;;;;;;20.61;44.81;101451.91;5054390;28;20029;-55
2022/06/01 10:24:30;;;;;;;2.92;1.40;;;;;;;20.62;45.00;101458.91;5054300;28;20151;-58
2022/06/01 10:26:59;;;;;;;3.78;1.23;;;;;;;20.62;45.04;101460.72;5053098;28;20028;-58
2022/06/01 10:29:48;;;;;;;3.90;1.30;;;;;;;20.61;44.87;101459.03;5054065;28;20029;-58
2022/06/01 10:32:26;;;;;;;3.42;1.27;;;;;;;20.60;44.84;101452.03;5054081;28;20075;-58
2022/06/01 10:34:56;;;;;;;3.40;1.20;;;;;;;20.60;44.87;101459.97;5052879;28;20532;-61
2022/06/01 10:37:35;;;;;;;4.65;1.73;;;;;;;20.59;44.95;101453.84;5054186;28;20024;-58
2022/06/01 10:40:06;;;;;;;5.97;1.35;;;;;;;20.58;45.15;101448.69;5053854;28;20021;-58
2022/06/01 10:45:34;;;;;;;2.45;1.08;;;;;;;20.58;44.67;101448.69;5053163;28;20074;-57
2022/06/01 10:48:16;;;;;;;3.78;1.35;;;;;;;20.57;45.04;101445.19;5052896;28;20028;-57
2022/06/01 10:50:51;;;;;;;3.28;1.23;;;;;;;20.58;45.01;101446.88;5053641;28;20033;-56
2022/06/01 10:53:30;;;;;;;4.95;1.40;;;;;;;20.57;45.08;101455.78;5053538;28;20503;-57
2022/06/01 10:55:57;;;;;;;4.97;1.30;;;;;;;20.58;45.36;101457.47;5052432;28;20115;-58
2022/06/01 10:58:25;;;;;;;4.53;1.20;;;;;;;20.57;45.30;101454.94;5053669;28;20043;-56
2022/06/01 11:01:24;;;;;;;4.70;1.25;;;;;;;20.57;45.33;101457.59;5053185;28;20017;-57
2022/06/01 11:04:04;;;;;;;2.70;1.00;;;;;;;20.57;45.21;101455.78;5052282;28;20037;-56
2022/06/01 11:06:54;;;;;;;3.92;1.10;;;;;;;20.57;45.30;101450.50;5053727;28;20116;-57
2022/06/01 11:09:29;;;;;;;2.58;1.17;;;;;;;20.57;45.58;101453.16;5052637;28;20469;-54
2022/06/01 11:12:29;;;;;;;4.05;1.20;;;;;;;20.58;45.24;101454.81;5053474;28;20522;-59
2022/06/01 11:15:13;;;;;;;3.45;1.30;;;;;;;20.57;45.63;101447.84;5048301;28;20033;-57
2022/06/01 11:17:45;;;;;;;3.17;1.30;;;;;;;20.59;45.70;101442.44;5052491;28;20452;-58
2022/06/01 11:20:23;;;;;;;2.90;1.38;;;;;;;20.60;45.53;101444.09;5052862;28;20074;-58
2022/06/01 11:23:17;;;;;;;3.90;1.40;;;;;;;20.62;45.63;101445.66;5052183;28;20056;-58
2022/06/01 11:25:52;;;;;;;2.53;1.20;;;;;;;20.65;46.01;101458.69;5053392;28;20021;-59
2022/06/01 11:28:41;;;;;;;5.85;1.30;;;;;;;20.70;45.76;101460.94;5053165;28;20373;-58
2022/06/01 11:31:25;;;;;;;3.33;1.20;;;;;;;20.74;45.76;101458.88;5051939;28;20024;-57
2022/06/01 11:34:04;;;;;;;5.80;1.40;;;;;;;20.77;45.94;101463.94;5052667;28;20380;-59
2022/06/01 11:36:58;;;;;;;5.88;1.17;;;;;;;20.77;45.85;101464.75;5052734;28;20511;-57
2022/06/01 11:39:51;;;;;;;2.58;1.00;;;;;;;20.78;45.33;101468.28;5053245;28;20548;-59
2022/06/01 11:42:33;;;;;;;5.80;1.10;;;;;;;20.76;45.41;101465.75;5053563;28;20040;-59
2022/06/01 11:45:17;;;;;;;2.95;1.25;;;;;;;20.76;45.17;101467.53;5052906;28;20039;-63
2022/06/01 11:47:54;;;;;;;;;;;;;;;20.76;45.32;101464.88;5053740;28;20044;-60
2022/06/01 11:50:44;;;;;;;3.30;1.20;;;;;;;20.76;45.39;101484.28;5052821;28;19913;-58
2022/06/01 11:53:43;;;;;;;4.00;1.13;;;;;;;20.78;45.24;101470.91;5052170;28;20083;-58
2022/06/01 11:56:25;;;;;;;3.83;1.00;;;;;;;20.76;45.14;101471.03;5051814;28;20056;-58
2022/06/01 11:59:02;;;;;;;3.80;1.20;;;;;;;20.75;45.34;101466.69;5051725;28;20025;-58
2022/06/01 12:01:45;;;;;;;4.53;1.00;;;;;;;20.75;45.20;101461.41;5052550;28;20154;-58
2022/06/01 12:04:30;;;;;;;2.03;1.20;;;;;;;20.73;45.60;101463.34;5052052;28;20041;-59
2022/06/01 12:07:01;;;;;;;2.67;1.10;;;;;;;20.75;45.66;101460.56;5051584;28;20048;-58
2022/06/01 12:09:35;;;;;;;10.43;1.52;;;;;;;20.77;45.78;101456.81;5052583;28;20045;-59